Time;durP1;ratioP1;P1;durP2;ratioP2;P2;SDS_P1;SDS_P2;PMS_P1;PMS_P2;Temp;Humidity;BMP_temperature;BMP_pressure;BME280_temperature;BME280_humidity;BME280_pressure;Samples;Min_cycle;Max_cycle;Signal;HPM_P1;HPM_P2
2022/03/20 00:00:22;;;;;;;16.75;9.60;;;2.70;88.40;;;;;;5051372;28;20024;-79
2022/03/20 00:02:48;;;;;;;21.10;10.85;;;2.50;88.30;;;;;;5051561;28;20042;-79
2022/03/20 00:05:15;;;;;;;19.15;10.60;;;2.50;88.50;;;;;;5046239;28;20541;-79
2022/03/20 00:07:41;;;;;;;16.35;9.73;;;2.40;88.60;;;;;;5050279;28;20029;-79
2022/03/20 00:10:08;;;;;;;17.50;10.90;;;2.40;88.70;;;;;;5052330;28;20039;-79
2022/03/20 00:12:35;;;;;;;18.35;11.00;;;2.40;88.80;;;;;;5047436;28;20025;-79
2022/03/20 00:15:00;;;;;;;18.85;11.40;;;2.40;89.20;;;;;;5049513;28;20025;-79
2022/03/20 00:17:26;;;;;;;19.38;10.55;;;2.30;89.20;;;;;;5049776;28;20034;-79
2022/03/20 00:19:52;;;;;;;21.13;11.73;;;2.30;89.20;;;;;;5052052;28;20033;-79
2022/03/20 00:22:17;;;;;;;23.63;11.48;;;2.40;89.50;;;;;;5065278;28;20032;-79
2022/03/20 00:24:44;;;;;;;19.63;11.63;;;2.40;89.30;;;;;;5049767;28;20063;-79
2022/03/20 00:27:12;;;;;;;24.60;11.95;;;2.30;89.40;;;;;;5049387;28;20035;-79
2022/03/20 00:29:38;;;;;;;20.27;13.05;;;2.30;89.70;;;;;;5056409;28;20464;-79
2022/03/20 00:32:05;;;;;;;18.75;11.90;;;2.20;89.50;;;;;;5049477;28;20051;-79
2022/03/20 00:34:31;;;;;;;20.65;11.68;;;2.20;89.70;;;;;;5064142;28;20050;-79
2022/03/20 00:36:57;;;;;;;20.40;11.52;;;2.10;89.70;;;;;;5053187;28;20779;-78
2022/03/20 00:39:22;;;;;;;21.20;12.55;;;2.20;89.90;;;;;;5051117;28;20024;-79
2022/03/20 00:41:48;;;;;;;23.60;12.25;;;2.00;89.90;;;;;;5050620;28;20454;-79
2022/03/20 00:44:13;;;;;;;25.73;13.73;;;2.10;90.20;;;;;;5062425;28;20047;-79
2022/03/20 00:46:39;;;;;;;22.00;13.40;;;2.10;90.20;;;;;;5043665;28;20063;-78
2022/03/20 00:49:07;;;;;;;22.95;13.63;;;2.10;90.30;;;;;;5068236;28;20086;-78
2022/03/20 00:51:33;;;;;;;25.60;14.18;;;2.10;90.50;;;;;;5051823;28;20036;-79
2022/03/20 00:53:59;;;;;;;25.33;14.60;;;2.00;90.50;;;;;;5062308;28;20396;-79
2022/03/20 00:56:25;;;;;;;22.98;14.75;;;2.00;90.60;;;;;;5050307;28;20032;-79
2022/03/20 00:58:51;;;;;;;23.60;14.18;;;2.00;90.80;;;;;;5047598;28;20060;-79
2022/03/20 01:01:16;;;;;;;30.60;15.65;;;2.00;90.80;;;;;;5050622;28;20033;-79
2022/03/20 01:03:42;;;;;;;23.05;14.85;;;2.00;90.90;;;;;;5050758;28;20040;-79
2022/03/20 01:06:09;;;;;;;29.77;15.45;;;1.90;91.00;;;;;;5064917;28;20048;-79
2022/03/20 01:08:35;;;;;;;28.13;15.27;;;1.90;91.00;;;;;;5049810;28;20033;-79
2022/03/20 01:11:02;;;;;;;23.33;15.35;;;1.90;91.00;;;;;;5045193;28;20029;-79
2022/03/20 01:13:29;;;;;;;26.35;16.05;;;1.90;91.00;;;;;;5061121;28;20143;-79
2022/03/20 01:15:55;;;;;;;27.52;15.93;;;1.90;91.20;;;;;;5066434;28;20020;-79
2022/03/20 01:18:20;;;;;;;28.45;16.13;;;1.80;91.10;;;;;;5066949;28;20032;-79
2022/03/20 01:20:46;;;;;;;31.17;16.85;;;1.80;91.20;;;;;;5042543;28;20033;-79
2022/03/20 01:23:12;;;;;;;27.80;16.40;;;1.70;91.20;;;;;;5065149;28;20033;-79
2022/03/20 01:25:39;;;;;;;25.73;16.52;;;1.70;91.30;;;;;;5053413;28;20120;-79
2022/03/20 01:28:04;;;;;;;29.90;16.90;;;1.80;91.40;;;;;;5046063;28;20036;-79
2022/03/20 01:30:30;;;;;;;26.23;16.65;;;1.80;91.40;;;;;;5045017;28;20027;-79
2022/03/20 01:32:55;;;;;;;34.70;17.95;;;1.80;91.50;;;;;;5049325;28;20479;-79
2022/03/20 01:35:21;;;;;;;29.00;16.98;;;1.80;91.50;;;;;;5068461;28;20128;-79
2022/03/20 01:37:46;;;;;;;31.75;17.13;;;1.70;91.50;;;;;;5062633;28;20405;-79
2022/03/20 01:40:12;;;;;;;37.08;17.73;;;1.70;91.80;;;;;;5070341;28;20043;-79
2022/03/20 01:42:39;;;;;;;31.48;17.85;;;1.60;91.60;;;;;;5069642;28;20029;-79
2022/03/20 01:45:15;;;;;;;30.15;17.52;;;1.60;91.60;;;;;;5067373;28;20025;-79
2022/03/20 01:47:40;;;;;;;35.10;18.35;;;1.60;91.70;;;;;;5053734;28;20086;-79
2022/03/20 01:50:06;;;;;;;30.95;17.80;;;1.60;91.80;;;;;;5053239;28;20025;-79
2022/03/20 01:52:33;;;;;;;36.97;17.77;;;1.60;91.70;;;;;;5072452;28;20070;-79
2022/03/20 01:54:59;;;;;;;34.80;18.77;;;1.60;91.80;;;;;;5063616;28;20051;-78
2022/03/20 01:57:26;;;;;;;31.70;19.38;;;1.60;91.70;;;;;;5070393;28;20032;-79
2022/03/20 01:59:52;;;;;;;34.25;18.80;;;1.60;91.90;;;;;;5068682;28;20028;-79
2022/03/20 02:02:19;;;;;;;31.02;18.50;;;1.60;91.90;;;;;;5067352;28;20123;-79
2022/03/20 02:04:45;;;;;;;34.42;18.83;;;1.60;91.90;;;;;;5053659;28;20546;-80
2022/03/20 02:07:10;;;;;;;35.03;20.48;;;1.60;92.10;;;;;;5053271;28;20032;-79
2022/03/20 02:09:37;;;;;;;35.95;19.38;;;1.50;91.80;;;;;;5069234;28;20108;-80
2022/03/20 02:12:04;;;;;;;31.17;18.15;;;1.50;91.70;;;;;;5063415;28;20029;-79
2022/03/20 02:14:33;;;;;;;36.45;19.92;;;1.50;91.90;;;;;;5046804;28;20400;-79
2022/03/20 02:16:58;;;;;;;35.60;19.17;;;1.50;91.80;;;;;;5069120;28;20028;-79
2022/03/20 02:19:25;;;;;;;36.35;19.35;;;1.40;91.90;;;;;;5053786;28;20540;-79
2022/03/20 02:21:50;;;;;;;39.28;21.25;;;1.40;91.90;;;;;;5070759;28;20036;-79
2022/03/20 02:24:49;;;;;;;30.67;19.40;;;1.30;91.90;;;;;;5072453;28;20365;-79
2022/03/20 02:27:17;;;;;;;31.17;19.13;;;1.40;92.00;;;;;;5049809;28;20094;-79
2022/03/20 02:30:03;;;;;;;43.28;19.90;;;1.30;91.90;;;;;;5049641;28;20446;-79
2022/03/20 02:32:32;;;;;;;31.88;19.15;;;1.30;91.80;;;;;;5066214;28;20373;-78
2022/03/20 02:35:02;;;;;;;32.65;20.25;;;1.20;91.80;;;;;;5049349;28;20049;-78
2022/03/20 02:37:28;;;;;;;35.58;20.35;;;1.20;92.00;;;;;;5051652;28;20479;-78
2022/03/20 02:39:56;;;;;;;32.88;20.40;;;1.30;92.00;;;;;;5058744;28;20659;-79
2022/03/20 02:42:23;;;;;;;38.85;21.63;;;1.20;91.90;;;;;;5073413;28;20093;-79
2022/03/20 02:44:53;;;;;;;36.47;20.13;;;1.20;92.00;;;;;;5053098;28;20063;-78
2022/03/20 02:47:23;;;;;;;35.50;20.40;;;1.30;92.10;;;;;;5063645;28;20028;-78
2022/03/20 02:50:05;;;;;;;34.55;20.38;;;1.40;92.00;;;;;;5050942;28;20047;-78
2022/03/20 02:52:52;;;;;;;34.63;20.27;;;1.20;91.80;;;;;;5067995;28;20024;-78
2022/03/20 02:55:23;;;;;;;39.22;20.20;;;1.20;91.90;;;;;;5053057;28;20032;-78
2022/03/20 02:57:50;;;;;;;36.80;21.05;;;1.30;91.80;;;;;;5073305;28;20071;-79
2022/03/20 03:00:18;;;;;;;33.70;21.00;;;1.10;91.70;;;;;;5070545;28;20032;-79
2022/03/20 03:02:45;;;;;;;35.50;21.55;;;1.20;91.70;;;;;;5049996;28;20420;-79
2022/03/20 03:05:14;;;;;;;41.45;21.73;;;1.20;91.70;;;;;;5051946;28;20107;-79
2022/03/20 03:13:11;;;;;;;42.38;20.45;;;1.20;91.80;;;;;;5065150;28;20078;-78
2022/03/20 03:15:36;;;;;;;38.28;21.58;;;1.20;91.60;;;;;;5053127;28;20049;-78
2022/03/20 03:18:03;;;;;;;40.08;21.13;;;1.20;91.60;;;;;;5048695;28;20071;-78
2022/03/20 03:20:28;;;;;;;39.30;21.05;;;1.20;91.70;;;;;;5048395;28;20021;-78
2022/03/20 03:22:54;;;;;;;34.55;21.23;;;1.20;91.50;;;;;;5050980;28;20040;-79
2022/03/20 03:25:21;;;;;;;38.03;21.35;;;1.20;91.50;;;;;;5048960;28;20029;-78
2022/03/20 03:27:47;;;;;;;36.42;20.50;;;1.20;91.40;;;;;;5047222;28;20041;-79
2022/03/20 03:30:13;;;;;;;35.90;21.70;;;1.20;91.40;;;;;;5069072;28;20541;-79
2022/03/20 03:32:40;;;;;;;36.60;21.27;;;1.10;91.30;;;;;;5035260;28;20025;-79
2022/03/20 03:37:55;;;;;;;34.58;20.10;;;1.10;91.20;;;;;;5067904;28;20058;-79
2022/03/20 03:40:20;;;;;;;36.35;21.08;;;1.10;91.10;;;;;;5057350;28;20032;-78
2022/03/20 03:42:46;;;;;;;35.90;21.13;;;1.10;91.00;;;;;;5058667;28;20484;-78
2022/03/20 03:45:12;;;;;;;34.38;21.52;;;1.10;90.90;;;;;;5052053;28;20058;-78
2022/03/20 03:47:38;;;;;;;33.83;20.80;;;1.10;90.90;;;;;;5071956;28;20074;-79
2022/03/20 03:50:05;;;;;;;40.00;19.92;;;1.00;90.90;;;;;;5059061;28;20029;-79
2022/03/20 03:52:30;;;;;;;38.80;21.27;;;1.10;90.80;;;;;;5045807;28;20032;-79
2022/03/20 03:54:55;;;;;;;32.53;20.23;;;1.00;90.60;;;;;;5062500;28;20086;-79
2022/03/20 03:57:21;;;;;;;35.22;20.38;;;0.90;90.60;;;;;;5069778;28;20421;-79
2022/03/20 03:59:47;;;;;;;33.30;20.65;;;1.00;90.70;;;;;;5051669;28;20043;-79
2022/03/20 04:02:13;;;;;;;34.00;20.33;;;1.00;90.50;;;;;;5052679;28;20036;-79
2022/03/20 04:04:39;;;;;;;31.73;19.85;;;0.90;90.40;;;;;;5049160;28;20050;-79
2022/03/20 04:07:05;;;;;;;38.97;20.67;;;0.90;90.30;;;;;;5059958;28;20036;-79
2022/03/20 04:09:31;;;;;;;32.85;20.65;;;0.90;90.30;;;;;;5065875;28;20028;-79
2022/03/20 04:11:57;;;;;;;30.85;20.08;;;0.90;90.30;;;;;;5068510;28;20387;-79
2022/03/20 04:14:23;;;;;;;32.40;19.65;;;0.90;90.20;;;;;;5071084;28;20028;-79
2022/03/20 04:16:49;;;;;;;33.78;19.88;;;0.90;90.20;;;;;;5078995;28;20368;-79
2022/03/20 04:19:15;;;;;;;35.13;19.52;;;0.90;89.90;;;;;;5062759;28;20035;-79
2022/03/20 04:21:40;;;;;;;31.70;19.08;;;0.90;89.90;;;;;;5048316;28;20028;-79
2022/03/20 04:24:07;;;;;;;32.80;19.20;;;0.80;89.90;;;;;;5063736;28;20085;-79
2022/03/20 04:26:34;;;;;;;34.70;20.50;;;0.90;89.80;;;;;;5061690;28;20024;-79
2022/03/20 04:29:01;;;;;;;32.88;20.25;;;0.80;89.50;;;;;;5063989;28;20112;-79
2022/03/20 04:31:26;;;;;;;29.85;20.02;;;0.80;89.40;;;;;;5047366;28;20028;-78
2022/03/20 04:33:54;;;;;;;31.50;19.30;;;0.80;89.30;;;;;;5062385;28;20487;-78
2022/03/20 04:36:24;;;;;;;33.10;20.30;;;0.80;89.10;;;;;;5051541;28;20112;-79
2022/03/20 04:38:54;;;;;;;31.63;18.27;;;0.80;89.20;;;;;;5050134;28;20395;-79
2022/03/20 04:41:21;;;;;;;33.78;19.45;;;0.70;89.00;;;;;;5071701;28;20048;-79
2022/03/20 04:43:49;;;;;;;31.90;19.83;;;0.70;88.90;;;;;;5061202;28;20070;-79
2022/03/20 04:46:16;;;;;;;32.10;20.10;;;0.80;88.70;;;;;;5050511;28;20123;-83
2022/03/20 04:59:37;;;;;;;29.95;17.75;;;0.70;88.40;;;;;;5066731;28;20242;-81
2022/03/20 05:02:04;;;;;;;30.38;20.13;;;0.70;87.90;;;;;;5055252;28;20179;-82
2022/03/20 05:04:29;;;;;;;31.67;19.08;;;0.70;87.50;;;;;;5067497;28;20432;-82
2022/03/20 05:06:55;;;;;;;31.50;19.92;;;0.80;87.40;;;;;;5046680;28;20033;-81
2022/03/20 05:14:49;;;;;;;32.70;19.05;;;0.60;87.40;;;;;;5069436;28;20078;-82
2022/03/20 05:17:14;;;;;;;35.70;18.20;;;0.60;87.50;;;;;;5074375;28;20056;-82
2022/03/20 05:19:40;;;;;;;33.60;19.30;;;0.60;87.40;;;;;;5073813;28;20082;-83
2022/03/20 05:22:11;;;;;;;26.85;16.40;;;0.60;87.20;;;;;;5073883;28;20028;-83
2022/03/20 05:24:37;;;;;;;33.20;19.63;;;0.70;87.00;;;;;;5068225;28;20445;-83
2022/03/20 05:27:04;;;;;;;33.22;19.10;;;0.60;86.90;;;;;;5070551;28;20507;-82
2022/03/20 05:29:31;;;;;;;28.40;18.45;;;0.60;86.80;;;;;;5071841;28;20028;-83
2022/03/20 05:31:56;;;;;;;27.40;18.15;;;0.60;86.80;;;;;;5063887;28;20476;-82
2022/03/20 05:34:22;;;;;;;30.15;18.27;;;0.60;86.50;;;;;;5054922;28;20051;-82
2022/03/20 05:36:49;;;;;;;30.30;18.90;;;0.70;86.30;;;;;;5067593;28;20029;-82
2022/03/20 05:39:15;;;;;;;27.25;18.13;;;0.70;85.90;;;;;;5058822;28;20054;-82
2022/03/20 05:41:46;;;;;;;28.00;17.90;;;0.80;85.50;;;;;;5081168;28;20039;-83
2022/03/20 05:44:15;;;;;;;;;;;0.70;85.30;;;;;;5055688;28;20521;-83
2022/03/20 05:46:42;;;;;;;29.45;17.42;;;0.80;85.30;;;;;;5076072;28;19950;-82
2022/03/20 05:49:08;;;;;;;29.05;18.00;;;0.80;84.90;;;;;;5073732;28;20064;-83
2022/03/20 05:51:40;;;;;;;28.77;17.83;;;0.90;84.40;;;;;;5054133;28;20071;-82
2022/03/20 05:54:06;;;;;;;28.85;17.90;;;0.90;84.20;;;;;;5067922;28;20031;-83
2022/03/20 05:59:16;;;;;;;31.85;18.58;;;0.90;84.30;;;;;;5058533;28;20438;-83
2022/03/20 06:01:43;;;;;;;27.10;17.45;;;0.90;84.20;;;;;;5063818;28;20032;-83
2022/03/20 06:04:09;;;;;;;26.02;17.10;;;0.90;83.90;;;;;;5067197;28;20391;-83
2022/03/20 06:06:35;;;;;;;30.50;17.85;;;0.90;83.60;;;;;;5053777;28;20033;-83
2022/03/20 06:09:02;;;;;;;31.27;18.60;;;0.90;83.40;;;;;;5051359;28;20029;-83
2022/03/20 06:11:27;;;;;;;27.08;16.98;;;1.00;83.20;;;;;;5055261;28;20505;-83
2022/03/20 06:13:53;;;;;;;25.98;16.55;;;1.00;83.10;;;;;;5056644;28;20033;-83
2022/03/20 06:16:22;;;;;;;26.23;17.55;;;1.00;82.90;;;;;;5061175;28;20060;-84
2022/03/20 06:18:48;;;;;;;27.25;17.20;;;1.00;82.80;;;;;;5052871;28;20039;-83
2022/03/20 06:21:14;;;;;;;26.52;17.50;;;1.20;82.10;;;;;;5075753;28;20486;-84
2022/03/20 06:23:39;;;;;;;29.23;16.83;;;1.20;81.30;;;;;;5055619;28;20454;-83
2022/03/20 06:26:06;;;;;;;28.75;16.88;;;1.20;81.20;;;;;;5053465;28;20059;-83
2022/03/20 06:28:32;;;;;;;29.50;16.98;;;1.30;80.80;;;;;;5065887;28;20028;-84
2022/03/20 06:30:59;;;;;;;26.52;15.35;;;1.30;80.70;;;;;;5062087;28;20016;-83
2022/03/20 06:33:27;;;;;;;30.67;16.20;;;1.40;80.50;;;;;;5074551;28;20025;-82
2022/03/20 06:35:54;;;;;;;29.08;17.35;;;1.40;80.20;;;;;;5051292;28;20025;-82
2022/03/20 06:38:20;;;;;;;24.55;16.35;;;1.50;80.00;;;;;;5049060;28;20028;-81
2022/03/20 06:40:45;;;;;;;26.13;16.45;;;1.60;79.00;;;;;;5064729;28;20112;-82
2022/03/20 06:43:11;;;;;;;29.45;16.17;;;1.60;78.90;;;;;;5054675;28;20474;-82
2022/03/20 06:45:37;;;;;;;23.67;14.90;;;1.70;78.40;;;;;;5063790;28;20519;-82
2022/03/20 06:48:04;;;;;;;24.52;16.40;;;1.80;77.60;;;;;;5066760;28;20463;-82
2022/03/20 06:50:29;;;;;;;23.90;15.63;;;2.00;76.30;;;;;;5073506;28;20024;-82
2022/03/20 06:53:01;;;;;;;24.70;15.85;;;2.00;76.80;;;;;;5068437;28;20035;-82
2022/03/20 06:55:26;;;;;;;22.13;14.85;;;2.10;76.20;;;;;;5055171;28;20056;-82
2022/03/20 06:57:52;;;;;;;23.38;14.35;;;2.20;75.40;;;;;;5061187;28;20435;-82
2022/03/20 07:00:18;;;;;;;24.88;15.25;;;2.30;75.10;;;;;;5049382;28;20476;-82
2022/03/20 07:02:43;;;;;;;22.50;14.73;;;2.40;75.20;;;;;;5068970;28;20044;-82
2022/03/20 07:05:09;;;;;;;23.83;15.40;;;2.50;73.80;;;;;;5074838;28;20032;-82
2022/03/20 07:07:35;;;;;;;22.63;14.93;;;2.60;74.50;;;;;;5058047;28;20032;-82
2022/03/20 07:10:01;;;;;;;21.70;13.95;;;2.80;73.70;;;;;;5067887;28;20035;-82
2022/03/20 07:12:27;;;;;;;21.77;13.27;;;2.80;72.60;;;;;;5048343;28;20396;-82
2022/03/20 07:14:55;;;;;;;22.75;14.40;;;2.80;71.30;;;;;;5052438;28;20119;-82
2022/03/20 07:17:21;;;;;;;22.58;14.40;;;2.90;72.20;;;;;;5042838;28;20024;-82
2022/03/20 07:19:47;;;;;;;23.20;13.80;;;3.00;70.80;;;;;;5069457;28;20032;-82
2022/03/20 07:22:14;;;;;;;23.25;13.60;;;3.00;70.10;;;;;;5050598;28;20037;-83
2022/03/20 07:24:43;;;;;;;22.25;12.90;;;3.10;69.00;;;;;;5044668;28;20032;-83
2022/03/20 07:29:54;;;;;;;23.58;14.23;;;3.20;69.00;;;;;;5068591;28;20038;-84
2022/03/20 07:32:21;;;;;;;25.85;14.55;;;3.30;68.20;;;;;;5060154;28;20116;-83
2022/03/20 07:35:08;;;;;;;22.63;14.25;;;3.30;68.00;;;;;;5043047;28;20036;-84
2022/03/20 07:37:34;;;;;;;25.08;14.05;;;3.40;68.50;;;;;;5044871;28;20028;-84
2022/03/20 07:39:59;;;;;;;23.48;14.23;;;3.50;67.40;;;;;;5045758;28;20029;-84
2022/03/20 07:42:26;;;;;;;23.48;13.82;;;3.60;67.30;;;;;;5046404;28;20112;-84
2022/03/20 07:44:52;;;;;;;21.15;12.85;;;3.70;67.00;;;;;;5079827;28;20024;-84
2022/03/20 07:47:22;;;;;;;17.83;13.07;;;3.80;65.80;;;;;;5062746;28;20098;-84
2022/03/20 07:49:49;;;;;;;24.00;14.10;;;3.80;65.70;;;;;;5045604;28;20119;-84
2022/03/20 07:52:16;;;;;;;20.25;13.18;;;3.90;65.90;;;;;;5076572;28;20451;-84
2022/03/20 07:54:42;;;;;;;19.42;12.88;;;4.00;66.80;;;;;;5060516;28;20138;-84
2022/03/20 07:57:08;;;;;;;22.50;12.68;;;4.10;66.70;;;;;;5073885;28;20021;-84
2022/03/20 07:59:34;;;;;;;20.88;13.35;;;4.30;65.90;;;;;;5061203;28;20081;-84
2022/03/20 08:02:00;;;;;;;20.75;12.82;;;4.20;63.70;;;;;;5069556;28;20154;-83
2022/03/20 08:04:25;;;;;;;20.23;12.40;;;4.30;63.80;;;;;;5052800;28;20066;-83
2022/03/20 08:06:51;;;;;;;19.83;12.70;;;4.50;64.10;;;;;;5068184;28;20475;-84
2022/03/20 08:09:17;;;;;;;20.25;12.63;;;4.50;61.70;;;;;;5067267;28;20391;-83
2022/03/20 08:11:42;;;;;;;22.15;12.75;;;4.70;63.10;;;;;;5049321;28;20051;-83
2022/03/20 08:14:08;;;;;;;22.10;12.73;;;4.90;61.40;;;;;;5046435;28;20383;-83
2022/03/20 08:16:36;;;;;;;21.15;13.05;;;5.00;59.90;;;;;;5065195;28;20040;-83
2022/03/20 08:19:01;;;;;;;25.00;14.48;;;5.10;60.40;;;;;;5057260;28;20036;-83
2022/03/20 08:21:28;;;;;;;20.48;12.77;;;5.30;58.90;;;;;;5036213;28;20643;-83
2022/03/20 08:23:54;;;;;;;17.00;11.68;;;5.40;58.30;;;;;;5046062;28;20106;-83
2022/03/20 08:26:19;;;;;;;19.80;12.88;;;5.60;57.80;;;;;;5045664;28;20060;-83
2022/03/20 08:28:45;;;;;;;18.55;12.27;;;5.80;57.80;;;;;;5041902;28;20032;-83
2022/03/20 08:31:12;;;;;;;22.55;12.90;;;6.10;57.00;;;;;;5051841;28;20067;-84
2022/03/20 08:33:40;;;;;;;20.20;13.63;;;6.30;56.20;;;;;;5073616;28;20035;-83
2022/03/20 08:36:06;;;;;;;20.90;13.00;;;6.50;55.50;;;;;;5061700;28;20584;-84
2022/03/20 08:38:31;;;;;;;18.95;12.13;;;6.80;55.10;;;;;;5064907;28;20111;-84
2022/03/20 08:40:57;;;;;;;20.67;12.38;;;6.80;54.40;;;;;;5068787;28;20028;-83
2022/03/20 08:43:23;;;;;;;16.73;11.60;;;7.30;55.00;;;;;;5061829;28;20630;-84
2022/03/20 08:45:50;;;;;;;20.05;13.57;;;7.00;52.20;;;;;;5068268;28;20051;-84
2022/03/20 08:48:16;;;;;;;21.35;12.95;;;7.00;52.00;;;;;;5063959;28;20020;-84
2022/03/20 08:50:48;;;;;;;20.33;12.75;;;7.30;53.30;;;;;;5040600;28;20028;-84
2022/03/20 08:53:18;;;;;;;20.75;13.20;;;7.50;52.00;;;;;;5046451;28;20035;-85
2022/03/20 08:55:48;;;;;;;20.98;13.40;;;7.60;52.70;;;;;;5044153;28;20032;-84
2022/03/20 08:58:14;;;;;;;22.58;13.10;;;7.70;51.30;;;;;;5052629;28;20064;-84
2022/03/20 09:00:40;;;;;;;23.80;13.40;;;7.70;51.10;;;;;;5065789;28;20083;-84
2022/03/20 09:03:06;;;;;;;23.23;13.45;;;7.70;50.00;;;;;;5046728;28;20063;-84
2022/03/20 09:05:32;;;;;;;18.60;13.52;;;8.30;50.00;;;;;;5055791;28;20057;-84
2022/03/20 09:07:58;;;;;;;21.23;13.07;;;8.10;48.10;;;;;;5062724;28;20055;-84
2022/03/20 09:10:25;;;;;;;21.48;13.93;;;8.40;48.10;;;;;;5059756;28;20107;-84
2022/03/20 09:12:55;;;;;;;21.13;12.77;;;8.50;47.80;;;;;;5034159;28;20044;-84
2022/03/20 09:15:22;;;;;;;20.90;12.73;;;8.70;48.00;;;;;;5057716;28;20035;-84
2022/03/20 09:20:35;;;;;;;21.02;12.73;;;8.50;46.00;;;;;;5070409;28;20063;-84
2022/03/20 09:23:01;;;;;;;20.63;12.93;;;8.90;47.20;;;;;;5056827;28;20037;-84
2022/03/20 09:25:26;;;;;;;17.65;11.25;;;9.30;48.10;;;;;;5055234;28;20483;-83
2022/03/20 09:27:52;;;;;;;22.20;13.32;;;8.90;45.50;;;;;;5056113;28;20518;-84
2022/03/20 09:30:19;;;;;;;20.52;12.98;;;8.90;45.20;;;;;;5084333;28;20024;-84
2022/03/20 09:32:45;;;;;;;20.98;13.15;;;9.00;44.80;;;;;;5071008;28;20032;-84
2022/03/20 09:35:11;;;;;;;18.85;13.07;;;9.20;46.00;;;;;;5051048;28;20029;-84
2022/03/20 09:37:37;;;;;;;19.77;12.27;;;9.30;46.00;;;;;;5052388;28;20064;-84
2022/03/20 09:40:04;;;;;;;22.38;12.93;;;9.50;45.60;;;;;;5056409;28;20033;-84
2022/03/20 09:42:30;;;;;;;22.48;13.68;;;9.30;45.10;;;;;;5062408;28;20028;-84
2022/03/20 09:44:56;;;;;;;22.92;13.57;;;9.60;45.80;;;;;;5071011;28;20174;-84
2022/03/20 09:47:23;;;;;;;19.20;13.02;;;10.00;44.10;;;;;;5052826;28;20027;-84
2022/03/20 09:49:50;;;;;;;22.20;13.05;;;10.00;43.30;;;;;;5045470;28;20033;-84
2022/03/20 09:52:17;;;;;;;21.00;13.70;;;10.10;42.50;;;;;;5059323;28;20112;-84
2022/03/20 09:54:43;;;;;;;19.65;12.93;;;10.00;42.50;;;;;;5052121;28;20024;-84
2022/03/20 09:57:09;;;;;;;20.02;12.32;;;10.60;43.80;;;;;;5078020;28;20418;-84
2022/03/20 09:59:37;;;;;;;19.98;12.27;;;10.70;43.50;;;;;;5063485;28;20135;-84
2022/03/20 10:02:05;;;;;;;21.77;13.50;;;10.60;41.20;;;;;;5058089;28;20749;-84
2022/03/20 10:04:34;;;;;;;18.85;12.48;;;10.60;41.20;;;;;;5084046;28;20032;-85
2022/03/20 10:07:00;;;;;;;18.52;12.77;;;10.70;40.70;;;;;;5058667;28;20025;-84
2022/03/20 10:09:26;;;;;;;23.05;12.77;;;10.40;40.70;;;;;;5051687;28;20031;-83
2022/03/20 10:12:03;;;;;;;18.67;12.43;;;10.80;39.90;;;;;;5075493;28;20056;-83
2022/03/20 10:14:29;;;;;;;19.23;12.63;;;11.00;40.50;;;;;;5061813;28;20066;-84
2022/03/20 10:17:07;;;;;;;20.45;12.90;;;11.10;39.00;;;;;;5072923;28;20017;-83
2022/03/20 10:19:33;;;;;;;19.13;12.52;;;11.40;39.50;;;;;;5057236;28;20025;-83
2022/03/20 10:22:04;;;;;;;21.48;12.93;;;11.20;38.10;;;;;;5056535;28;20074;-83
2022/03/20 10:24:31;;;;;;;17.77;12.52;;;10.80;38.00;;;;;;5076160;28;20035;-83
2022/03/20 10:27:00;;;;;;;17.08;11.43;;;11.10;38.90;;;;;;5044429;28;20488;-83
2022/03/20 10:29:27;;;;;;;19.75;11.10;;;11.40;38.70;;;;;;5047366;28;20081;-83
2022/03/20 10:31:54;;;;;;;19.63;12.25;;;11.40;36.80;;;;;;5053209;28;20424;-82
2022/03/20 10:34:21;;;;;;;18.27;11.68;;;11.60;37.10;;;;;;5046179;28;20032;-82
2022/03/20 10:36:48;;;;;;;17.48;11.90;;;11.30;37.80;;;;;;5052413;28;20052;-84
2022/03/20 10:39:20;;;;;;;18.08;11.90;;;11.50;36.20;;;;;;5047704;28;20024;-82
2022/03/20 10:41:47;;;;;;;19.95;12.20;;;12.00;38.10;;;;;;5050033;28;20543;-82
2022/03/20 10:44:24;;;;;;;17.15;11.98;;;12.00;36.60;;;;;;5043971;28;20052;-83
2022/03/20 10:46:59;;;;;;;22.25;12.30;;;12.00;36.70;;;;;;5051161;28;20025;-83
2022/03/20 10:49:25;;;;;;;19.60;11.90;;;12.10;36.60;;;;;;5059722;28;20037;-84
2022/03/20 10:52:01;;;;;;;17.65;11.45;;;12.50;37.70;;;;;;5052840;28;20036;-82
2022/03/20 10:54:42;;;;;;;22.00;11.75;;;12.50;35.30;;;;;;5061824;28;20103;-82
2022/03/20 10:57:08;;;;;;;17.80;11.50;;;12.50;35.50;;;;;;5051844;28;20024;-82
2022/03/20 10:59:34;;;;;;;17.55;10.85;;;12.70;35.80;;;;;;5054101;28;20036;-83
2022/03/20 11:02:05;;;;;;;17.42;11.10;;;12.40;35.70;;;;;;5063452;28;20033;-83
2022/03/20 11:04:32;;;;;;;16.67;10.55;;;12.80;35.30;;;;;;5071523;28;20023;-84
2022/03/20 11:07:00;;;;;;;17.90;12.15;;;12.10;33.90;;;;;;5054143;28;20031;-84
2022/03/20 11:09:26;;;;;;;19.40;10.82;;;12.40;33.80;;;;;;5043866;28;20523;-83
2022/03/20 11:11:54;;;;;;;17.90;10.73;;;12.30;33.20;;;;;;5063321;28;20440;-83
2022/03/20 11:14:22;;;;;;;17.90;10.65;;;12.60;33.50;;;;;;5053066;28;20395;-84
2022/03/20 11:17:01;;;;;;;18.38;11.25;;;12.90;34.70;;;;;;5055541;28;20081;-84
2022/03/20 11:19:32;;;;;;;17.45;10.32;;;12.80;33.50;;;;;;5070553;28;20754;-84
2022/03/20 11:22:11;;;;;;;;;;;12.90;32.50;;;;;;5052425;28;20021;-84
2022/03/20 11:24:37;;;;;;;16.15;10.93;;;12.70;32.40;;;;;;5067979;28;19909;-84
2022/03/20 11:27:05;;;;;;;17.55;11.35;;;12.50;32.00;;;;;;5055021;28;20491;-84
2022/03/20 11:29:44;;;;;;;16.30;10.73;;;12.80;32.40;;;;;;5080704;28;20035;-83
2022/03/20 11:32:10;;;;;;;16.52;10.52;;;13.20;32.80;;;;;;5053470;28;20047;-84
2022/03/20 11:34:36;;;;;;;16.23;10.50;;;13.00;32.00;;;;;;5053972;28;20025;-84
2022/03/20 11:37:07;;;;;;;18.75;11.05;;;12.90;31.50;;;;;;5060942;28;20052;-84
2022/03/20 11:39:34;;;;;;;15.18;9.88;;;13.10;32.20;;;;;;5054802;28;20113;-84
2022/03/20 11:42:23;;;;;;;17.10;10.40;;;12.90;31.10;;;;;;5043831;28;20036;-84
2022/03/20 11:45:00;;;;;;;14.75;10.15;;;13.20;32.80;;;;;;5067684;28;20109;-84
2022/03/20 11:47:31;;;;;;;14.88;11.40;;;13.50;32.70;;;;;;5071577;28;20028;-84
2022/03/20 11:50:07;;;;;;;18.52;11.18;;;13.00;31.60;;;;;;5052504;28;20032;-84
2022/03/20 11:52:58;;;;;;;15.95;10.48;;;13.00;32.30;;;;;;5054643;28;20329;-84
2022/03/20 11:55:50;;;;;;;17.67;11.02;;;13.20;31.50;;;;;;5058437;28;20484;-85
2022/03/20 11:58:24;;;;;;;19.20;11.65;;;13.50;31.10;;;;;;5060963;28;20071;-84
2022/03/20 12:01:12;;;;;;;20.52;11.15;;;13.80;31.40;;;;;;5044784;28;20025;-85
2022/03/20 12:03:53;;;;;;;18.25;10.77;;;13.70;30.90;;;;;;5044589;28;20082;-84
2022/03/20 12:06:19;;;;;;;16.65;10.82;;;13.50;31.20;;;;;;5071789;28;20058;-84
2022/03/20 12:09:20;;;;;;;16.92;11.20;;;13.60;31.40;;;;;;5050443;28;20039;-84
2022/03/20 12:12:05;;;;;;;15.50;11.02;;;14.00;30.80;;;;;;5067546;28;20024;-83
2022/03/20 12:14:53;;;;;;;17.05;11.77;;;13.50;30.40;;;;;;5047602;28;20024;-83
2022/03/20 12:17:19;;;;;;;17.60;10.57;;;13.70;30.80;;;;;;5054098;28;20491;-84
2022/03/20 12:19:49;;;;;;;19.80;11.40;;;13.90;30.80;;;;;;5034730;28;20527;-84
2022/03/20 12:22:29;;;;;;;14.98;9.80;;;13.40;30.40;;;;;;5062073;28;20392;-84
2022/03/20 12:25:00;;;;;;;16.25;10.55;;;13.40;31.90;;;;;;5046423;28;20017;-84
2022/03/20 12:27:25;;;;;;;;;;;13.50;30.10;;;;;;5068189;28;20062;-84
2022/03/20 12:30:01;;;;;;;16.67;11.05;;;13.60;30.10;;;;;;5082179;28;20007;-83
2022/03/20 12:32:47;;;;;;;16.63;10.88;;;13.50;30.50;;;;;;5051072;28;20020;-84
2022/03/20 12:35:23;;;;;;;17.98;11.35;;;13.90;30.70;;;;;;5066623;28;20065;-84
2022/03/20 12:37:49;;;;;;;17.58;10.82;;;14.10;30.20;;;;;;5050580;28;20117;-82
2022/03/20 12:40:26;;;;;;;15.68;10.32;;;14.70;29.70;;;;;;5070698;28;20032;-83
2022/03/20 12:43:13;;;;;;;14.55;9.18;;;14.60;29.60;;;;;;5047514;28;20037;-83
2022/03/20 12:45:41;;;;;;;16.13;10.80;;;14.10;31.00;;;;;;5052284;28;20025;-82
2022/03/20 12:48:16;;;;;;;16.20;10.02;;;15.00;29.50;;;;;;5050295;28;20056;-83
2022/03/20 12:50:57;;;;;;;17.15;10.90;;;14.80;28.90;;;;;;5070375;28;20041;-83
2022/03/20 12:53:24;;;;;;;14.57;9.90;;;13.90;28.70;;;;;;5047808;28;20024;-83
2022/03/20 12:56:01;;;;;;;18.52;10.25;;;14.10;29.40;;;;;;5050337;28;20547;-82
2022/03/20 12:58:27;;;;;;;13.73;9.45;;;14.30;29.30;;;;;;5050080;28;20056;-83
2022/03/20 13:00:55;;;;;;;15.35;9.77;;;14.80;28.50;;;;;;5068767;28;20396;-83
2022/03/20 13:03:21;;;;;;;14.35;9.75;;;14.40;27.80;;;;;;5071954;28;20445;-83
2022/03/20 13:05:49;;;;;;;14.05;9.77;;;15.10;27.90;;;;;;5050580;28;20037;-83
2022/03/20 13:08:26;;;;;;;15.13;9.90;;;14.50;27.10;;;;;;5070843;28;20475;-83
2022/03/20 13:10:53;;;;;;;16.02;10.25;;;14.60;27.40;;;;;;5045918;28;20032;-82
2022/03/20 13:13:23;;;;;;;16.67;9.95;;;14.80;28.10;;;;;;5056671;28;20021;-83